createdAt,value
2023-04-05T00:02:29.938Z,2.63
2023-04-05T00:05:29.299Z,3.30
2023-04-05T00:08:23.961Z,2.70
2023-04-05T00:11:12.618Z,2.50
2023-04-05T00:14:03.381Z,2.60
2023-04-05T00:16:52.047Z,2.88
2023-04-05T00:19:40.568Z,2.90
2023-04-05T00:22:35.982Z,3.03
2023-04-05T00:25:24.386Z,2.78
2023-04-05T00:28:13.092Z,3.03
2023-04-05T00:31:02.901Z,3.20
2023-04-05T00:33:51.341Z,2.70
2023-04-05T00:36:39.768Z,2.60
2023-04-05T00:39:28.487Z,2.40
2023-04-05T00:42:16.904Z,2.60
2023-04-05T00:45:06.066Z,2.55
2023-04-05T00:47:57.085Z,2.40
2023-04-05T00:50:46.371Z,2.67
2023-04-05T00:53:34.908Z,3.10
2023-04-05T00:56:24.396Z,3.05
2023-04-05T00:59:12.914Z,2.70
2023-04-05T01:02:04.957Z,2.95
2023-04-05T01:05:02.038Z,2.80
2023-04-05T01:07:55.423Z,3.00
2023-04-05T01:10:47.713Z,3.60
2023-04-05T01:13:36.585Z,2.83
2023-04-05T01:16:25.012Z,3.83
2023-04-05T01:19:13.446Z,2.80
2023-04-05T01:22:37.975Z,2.90
2023-04-05T01:25:46.461Z,2.97
2023-04-05T01:28:58.325Z,3.00
2023-04-05T01:31:55.069Z,3.00
2023-04-05T01:34:51.642Z,2.70
2023-04-05T01:37:41.410Z,2.78
2023-04-05T01:40:31.281Z,2.60
2023-04-05T01:43:20.059Z,2.95
2023-04-05T01:46:08.842Z,2.97
2023-04-05T01:48:58.657Z,2.88
2023-04-05T01:51:47.115Z,3.23
2023-04-05T01:54:35.645Z,3.05
2023-04-05T01:57:25.002Z,3.00
2023-04-05T02:00:14.459Z,3.25
2023-04-05T02:03:02.944Z,3.08
2023-04-05T02:05:52.836Z,2.70
2023-04-05T02:08:41.202Z,2.50
2023-04-05T02:11:29.644Z,2.72
2023-04-05T02:14:18.046Z,2.80
2023-04-05T02:17:06.728Z,2.72
2023-04-05T02:20:02.211Z,2.50
2023-04-05T02:22:52.005Z,2.42
2023-04-05T02:25:40.417Z,3.25
2023-04-05T02:28:28.913Z,3.17
2023-04-05T02:31:17.373Z,2.38
2023-04-05T02:34:09.251Z,2.65
2023-04-05T02:36:57.648Z,2.13
2023-04-05T02:39:47.605Z,2.50
2023-04-05T02:42:36.209Z,2.35
2023-04-05T02:45:24.649Z,2.80
2023-04-05T02:48:13.052Z,2.70
2023-04-05T02:51:01.634Z,3.08
2023-04-05T02:53:50.207Z,2.25
2023-04-05T02:56:40.042Z,2.70
2023-04-05T02:59:28.629Z,2.85
2023-04-05T03:02:17.126Z,2.70
2023-04-05T03:05:06.046Z,2.60
2023-04-05T03:07:54.767Z,2.90
2023-04-05T03:10:45.072Z,2.57
2023-04-05T03:13:35.924Z,2.80
2023-04-05T03:16:24.421Z,2.50
2023-04-05T03:19:12.834Z,2.42
2023-04-05T03:22:01.284Z,2.38
2023-04-05T03:24:49.678Z,2.40
2023-04-05T03:27:38.547Z,2.50
2023-04-05T03:30:28.353Z,2.13
2023-04-05T03:33:16.873Z,2.38
2023-04-05T03:36:05.773Z,2.97
2023-04-05T03:38:56.051Z,2.40
2023-04-05T03:41:44.492Z,2.22
2023-04-05T03:44:32.919Z,2.47
2023-04-05T03:47:22.763Z,2.42
2023-04-05T03:50:11.469Z,2.60
2023-04-05T03:52:59.959Z,2.70
2023-04-05T03:55:49.562Z,2.60
2023-04-05T03:58:38.412Z,2.80
2023-04-05T04:01:27.054Z,2.60
2023-04-05T04:04:16.858Z,2.70
2023-04-05T04:07:05.818Z,2.90
2023-04-05T04:09:55.442Z,3.00
2023-04-05T04:12:43.864Z,2.83
2023-04-05T04:15:32.828Z,3.03
2023-04-05T04:18:21.295Z,3.22
2023-04-05T04:21:11.737Z,3.10
2023-04-05T04:24:00.802Z,3.33
2023-04-05T04:26:49.850Z,3.15
2023-04-05T04:29:39.144Z,3.25
2023-04-05T04:32:47.819Z,3.85
2023-04-05T04:35:39.153Z,4.20
2023-04-05T04:38:29.227Z,3.83
2023-04-05T04:41:20.237Z,4.07
2023-04-05T04:44:08.781Z,4.50
2023-04-05T04:46:57.164Z,4.35
2023-04-05T04:49:45.857Z,4.13
2023-04-05T04:52:35.481Z,4.38
2023-04-05T04:55:26.169Z,4.80
2023-04-05T04:58:14.832Z,5.05
2023-04-05T05:01:09.775Z,4.63
2023-04-05T05:03:58.730Z,4.82
2023-04-05T05:06:47.330Z,5.10
2023-04-05T05:09:35.770Z,5.03
2023-04-05T05:12:26.823Z,4.53
2023-04-05T05:15:15.367Z,4.57
2023-04-05T05:18:04.577Z,4.68
2023-04-05T05:20:53.440Z,5.68
2023-04-05T05:23:42.182Z,4.90
2023-04-05T05:26:30.709Z,4.32
2023-04-05T05:29:21.104Z,4.90
2023-04-05T05:32:14.404Z,3.93
2023-04-05T05:35:03.089Z,3.63
2023-04-05T05:37:52.610Z,3.77
2023-04-05T05:40:41.266Z,3.53
2023-04-05T05:43:29.934Z,3.20
2023-04-05T05:46:21.195Z,3.90
2023-04-05T05:49:09.997Z,4.27
2023-04-05T05:51:58.602Z,4.20
2023-04-05T05:54:47.406Z,3.87
2023-04-05T05:57:36.711Z,4.00
2023-04-05T06:00:25.298Z,4.07
2023-04-05T06:03:15.285Z,3.60
2023-04-05T06:06:06.041Z,3.58
2023-04-05T06:08:54.836Z,3.30
2023-04-05T06:11:55.325Z,3.75
2023-04-05T06:14:45.423Z,3.30
2023-04-05T06:20:29.815Z,4.43
2023-04-05T06:23:18.569Z,4.38
2023-04-05T06:26:07.379Z,3.90
2023-04-05T06:28:56.332Z,3.63
2023-04-05T06:31:46.617Z,3.38
2023-04-05T06:34:35.537Z,4.20
2023-04-05T06:37:25.675Z,4.18
2023-04-05T06:40:14.460Z,3.30
2023-04-05T06:43:03.242Z,4.65
2023-04-05T06:45:52.036Z,4.93
2023-04-05T06:48:40.934Z,5.22
2023-04-05T06:51:29.787Z,5.00
2023-04-05T06:54:21.257Z,5.70
2023-04-05T06:57:09.720Z,4.70
2023-04-05T06:59:58.639Z,5.47
2023-04-05T07:02:47.100Z,5.55
2023-04-05T07:05:35.510Z,5.95
2023-04-05T07:08:24.935Z,5.13
2023-04-05T07:11:15.886Z,5.38
2023-04-05T07:14:04.374Z,5.53
2023-04-05T07:16:52.977Z,5.03
2023-04-05T07:19:41.447Z,5.25
2023-04-05T07:22:29.878Z,5.70
2023-04-05T07:25:18.413Z,4.75
2023-04-05T07:28:08.265Z,5.43
2023-04-05T07:30:57.034Z,4.95
2023-04-05T07:33:45.734Z,5.13
2023-04-05T07:36:35.398Z,4.35
2023-04-05T07:39:25.567Z,3.63
2023-04-05T07:42:13.992Z,3.90
2023-04-05T07:45:03.995Z,4.30
2023-04-05T07:47:52.497Z,4.40
2023-04-05T07:50:42.579Z,4.25
2023-04-05T07:53:31.223Z,4.50
2023-04-05T07:56:19.675Z,5.25
2023-04-05T07:59:08.280Z,4.82
2023-04-05T08:02:02.120Z,4.72
2023-04-05T08:05:00.865Z,4.70
2023-04-05T08:07:49.378Z,4.32
2023-04-05T08:10:40.489Z,4.50
2023-04-05T08:13:29.196Z,4.82
2023-04-05T08:16:17.694Z,3.80
2023-04-05T08:19:07.501Z,4.10
2023-04-05T08:21:56.093Z,3.97
2023-04-05T08:24:44.630Z,3.58
2023-04-05T08:27:33.138Z,5.28
2023-04-05T08:30:23.269Z,4.60
2023-04-05T08:33:11.794Z,3.75
2023-04-05T08:36:05.540Z,3.00
2023-04-05T08:38:54.020Z,2.90
2023-04-05T08:41:47.608Z,3.53
2023-04-05T08:44:39.007Z,3.40
2023-04-05T08:47:28.136Z,3.42
2023-04-05T08:50:16.610Z,2.95
2023-04-05T08:53:06.541Z,3.10
2023-04-05T08:55:58.183Z,3.10
2023-04-05T08:58:53.820Z,3.40
2023-04-05T09:01:44.544Z,3.50
2023-04-05T09:04:38.321Z,3.47
2023-04-05T09:07:28.503Z,3.00
2023-04-05T09:10:20.540Z,2.83
2023-04-05T09:13:11.319Z,3.13
2023-04-05T09:16:03.228Z,3.58
2023-04-05T09:18:51.698Z,3.00
2023-04-05T09:21:59.202Z,2.70
2023-04-05T09:24:48.019Z,3.28
2023-04-05T09:27:54.506Z,2.63
2023-04-05T09:30:47.694Z,2.42
2023-04-05T09:33:36.826Z,2.75
2023-04-05T09:36:25.738Z,2.85
2023-04-05T09:39:14.282Z,3.08
2023-04-05T09:42:10.536Z,3.78
2023-04-05T09:45:03.129Z,3.95
2023-04-05T09:47:59.179Z,3.13
2023-04-05T09:50:49.758Z,3.28
2023-04-05T09:53:38.619Z,3.63
2023-04-05T09:56:27.532Z,7.38
2023-04-05T09:59:18.085Z,3.07
2023-04-05T10:02:07.924Z,5.32
2023-04-05T10:04:56.428Z,2.70
2023-04-05T10:07:45.377Z,3.65
2023-04-05T10:10:39.690Z,2.90
2023-04-05T10:13:29.104Z,2.40
2023-04-05T10:16:24.257Z,2.53
2023-04-05T10:19:18.698Z,3.50
2023-04-05T10:22:14.015Z,3.90
2023-04-05T10:25:09.430Z,2.88
2023-04-05T10:28:05.297Z,2.92
2023-04-05T10:31:11.687Z,3.00
2023-04-05T10:34:05.872Z,3.10
2023-04-05T10:37:00.348Z,3.50
2023-04-05T10:39:49.150Z,3.38
2023-04-05T10:42:43.857Z,3.25
2023-04-05T10:45:35.761Z,3.90
2023-04-05T10:48:37.885Z,3.38
2023-04-05T10:51:27.666Z,3.70
2023-04-05T10:54:20.637Z,2.60
2023-04-05T10:57:11.365Z,3.40
2023-04-05T11:00:01.815Z,2.30
2023-04-05T11:02:54.757Z,4.17
2023-04-05T11:05:43.427Z,6.22
2023-04-05T11:08:33.228Z,2.60
2023-04-05T11:11:25.227Z,3.35
2023-04-05T11:14:20.759Z,5.35
2023-04-05T11:17:26.135Z,6.00
2023-04-05T11:20:14.641Z,3.10
2023-04-05T11:23:03.108Z,2.72
2023-04-05T11:25:54.054Z,3.60
2023-04-05T11:28:43.910Z,2.30
2023-04-05T11:31:32.407Z,3.22
2023-04-05T11:34:25.673Z,3.00
2023-04-05T11:37:17.063Z,3.17
2023-04-05T11:40:20.718Z,3.38
2023-04-05T11:43:10.390Z,2.88
2023-04-05T11:46:04.413Z,2.95
2023-04-05T11:48:52.955Z,2.70
2023-04-05T11:51:42.582Z,2.92
2023-04-05T11:54:32.664Z,3.05
2023-04-05T11:57:22.807Z,2.60
2023-04-05T12:00:17.185Z,2.45
2023-04-05T12:03:07.125Z,3.00
2023-04-05T12:05:56.430Z,2.60
2023-04-05T12:08:50.461Z,2.97
2023-04-05T12:11:41.190Z,3.08
2023-04-05T12:14:29.655Z,3.13
2023-04-05T12:17:18.081Z,3.47
2023-04-05T12:20:09.602Z,3.22
2023-04-05T12:22:58.638Z,2.78
2023-04-05T12:25:48.389Z,2.20
2023-04-05T12:28:53.034Z,2.80
2023-04-05T12:31:41.993Z,2.72
2023-04-05T12:34:30.482Z,2.53
2023-04-05T12:37:20.281Z,2.47
2023-04-05T12:40:10.002Z,2.15
2023-04-05T12:43:03.247Z,3.58
2023-04-05T12:45:56.480Z,2.60
2023-04-05T12:48:45.155Z,2.33
2023-04-05T12:51:33.996Z,2.88
2023-04-05T12:54:24.906Z,2.50
2023-04-05T12:57:14.364Z,2.58
2023-04-05T13:00:02.886Z,2.50
2023-04-05T13:02:53.536Z,2.70
2023-04-05T13:05:42.368Z,2.38
2023-04-05T13:08:31.166Z,5.10
2023-04-05T13:11:21.028Z,4.47
2023-04-05T13:14:09.869Z,2.72
2023-04-05T13:16:58.318Z,4.78
2023-04-05T13:19:46.730Z,4.05
2023-04-05T13:22:35.229Z,2.60
2023-04-05T13:25:23.900Z,2.70
2023-04-05T13:28:14.138Z,3.65
2023-04-05T13:31:06.306Z,2.92
2023-04-05T13:33:55.207Z,2.47
2023-04-05T13:36:43.694Z,2.92
2023-04-05T13:39:32.162Z,3.00
2023-04-05T13:42:20.730Z,4.03
2023-04-05T13:45:12.065Z,4.00
2023-04-05T13:48:02.530Z,3.47
2023-04-05T13:50:51.050Z,3.10
2023-04-05T13:53:39.514Z,2.90
2023-04-05T13:56:27.999Z,2.65
2023-04-05T13:59:17.276Z,3.30
2023-04-05T14:02:07.898Z,3.10
2023-04-05T14:04:56.653Z,3.22
2023-04-05T14:07:45.023Z,4.45
2023-04-05T14:10:33.610Z,4.83
2023-04-05T14:13:22.020Z,2.50
2023-04-05T14:16:10.793Z,6.13
2023-04-05T14:19:00.909Z,2.83
2023-04-05T14:21:50.368Z,2.70
2023-04-05T14:24:38.881Z,2.43
2023-04-05T14:27:28.485Z,3.35
2023-04-05T14:30:17.133Z,3.28
2023-04-05T14:33:05.848Z,2.80
2023-04-05T14:35:55.841Z,2.75
2023-04-05T14:38:44.394Z,2.85
2023-04-05T14:41:33.098Z,2.65
2023-04-05T14:44:21.680Z,2.60
2023-04-05T14:47:10.278Z,5.22
2023-04-05T14:49:58.863Z,5.53
2023-04-05T14:52:48.847Z,2.60
2023-04-05T14:55:39.552Z,3.33
2023-04-05T14:58:29.506Z,2.28
2023-04-05T15:01:18.443Z,2.53
2023-04-05T15:04:09.279Z,2.40
2023-04-05T15:06:58.260Z,2.20
2023-04-05T15:09:48.846Z,2.40
2023-04-05T15:12:37.352Z,2.60
2023-04-05T15:15:25.882Z,2.38
2023-04-05T15:18:14.434Z,2.40
2023-04-05T15:21:03.293Z,1.83
2023-04-05T15:23:51.719Z,2.00
2023-04-05T15:26:41.832Z,2.40
2023-04-05T15:29:30.732Z,1.98
2023-04-05T15:32:19.326Z,1.90
2023-04-05T15:35:08.267Z,2.00
2023-04-05T15:37:56.764Z,2.30
2023-04-05T15:40:49.566Z,2.00
2023-04-05T15:43:40.062Z,2.33
2023-04-05T15:46:29.252Z,2.00
2023-04-05T15:49:18.110Z,1.90
2023-04-05T15:52:06.987Z,2.08
2023-04-05T15:54:55.958Z,2.00
2023-04-05T15:57:44.793Z,2.47
2023-04-05T16:00:35.018Z,2.20
2023-04-05T16:03:24.102Z,2.20
2023-04-05T16:06:13.140Z,2.83
2023-04-05T16:09:01.826Z,2.00
2023-04-05T16:11:50.593Z,1.70
2023-04-05T16:14:39.500Z,2.47
2023-04-05T16:17:29.606Z,2.17
2023-04-05T16:20:18.611Z,2.40
2023-04-05T16:23:07.092Z,2.30
2023-04-05T16:25:55.781Z,2.50
2023-04-05T16:28:44.554Z,2.22
2023-04-05T16:31:33.822Z,2.58
2023-04-05T16:34:23.922Z,2.30
2023-04-05T16:37:12.431Z,2.10
2023-04-05T16:40:00.956Z,2.67
2023-04-05T16:42:49.430Z,3.07
2023-04-05T16:45:38.500Z,2.60
2023-04-05T16:48:27.627Z,2.75
2023-04-05T16:51:17.553Z,2.13
2023-04-05T16:54:06.248Z,2.40
2023-04-05T16:56:54.833Z,2.67
2023-04-05T16:59:43.618Z,2.58
2023-04-05T17:02:32.228Z,3.10
2023-04-05T17:05:20.924Z,2.85
2023-04-05T17:08:10.910Z,2.83
2023-04-05T17:10:59.416Z,2.50
2023-04-05T17:13:48.052Z,3.70
2023-04-05T17:16:36.630Z,3.30
2023-04-05T17:19:25.145Z,2.67
2023-04-05T17:22:14.960Z,2.78
2023-04-05T17:25:05.803Z,2.70
2023-04-05T17:27:54.359Z,2.60
2023-04-05T17:30:42.872Z,2.47
2023-04-05T17:33:31.472Z,3.85
2023-04-05T17:36:19.968Z,3.60
2023-04-05T17:39:08.511Z,3.88
2023-04-05T17:41:58.432Z,3.45
2023-04-05T17:44:46.952Z,3.55
2023-04-05T17:47:35.922Z,3.55
2023-04-05T17:50:25.038Z,3.35
2023-04-05T17:53:14.930Z,3.70
2023-04-05T17:56:03.848Z,4.10
2023-04-05T17:58:54.079Z,4.68
2023-04-05T18:01:42.834Z,5.00
2023-04-05T18:05:02.116Z,4.28
2023-04-05T18:07:50.727Z,4.40
2023-04-05T18:10:39.240Z,4.97
2023-04-05T18:13:28.926Z,6.55
2023-04-05T18:16:18.975Z,6.75
2023-04-05T18:19:31.088Z,6.97
2023-04-05T18:22:19.580Z,6.70
2023-04-05T18:25:34.183Z,5.00
2023-04-05T18:28:23.782Z,4.15
2023-04-05T18:31:12.388Z,3.17
2023-04-05T18:34:04.848Z,2.90
2023-04-05T18:36:53.375Z,2.80
2023-04-05T18:39:41.879Z,2.55
2023-04-05T18:42:32.582Z,2.80
2023-04-05T18:45:22.737Z,2.28
2023-04-05T18:48:12.501Z,2.63
2023-04-05T18:51:02.382Z,2.80
2023-04-05T18:53:51.331Z,2.50
2023-04-05T18:56:39.913Z,2.70
2023-04-05T18:59:29.420Z,2.45
2023-04-05T19:02:18.055Z,2.75
2023-04-05T19:05:07.703Z,3.13
2023-04-05T19:07:57.653Z,2.72
2023-04-05T19:10:46.447Z,3.00
2023-04-05T19:13:35.202Z,3.20
2023-04-05T19:16:23.826Z,3.38
2023-04-05T19:19:12.507Z,3.25
2023-04-05T19:22:01.160Z,3.25
2023-04-05T19:24:51.338Z,3.70
2023-04-05T19:27:41.333Z,2.85
2023-04-05T19:30:30.207Z,3.67
2023-04-05T19:33:21.041Z,3.72
2023-04-05T19:36:10.573Z,3.85
2023-04-05T19:38:59.227Z,3.58
2023-04-05T19:41:49.441Z,3.35
2023-04-05T19:44:48.995Z,3.58
2023-04-05T19:47:44.068Z,4.07
2023-04-05T19:50:56.573Z,5.00
2023-04-05T19:53:49.677Z,4.70
2023-04-05T19:56:39.160Z,4.57
2023-04-05T19:59:31.406Z,4.18
2023-04-05T20:02:37.331Z,3.78
2023-04-05T20:05:59.041Z,4.05
2023-04-05T20:08:48.602Z,4.03
2023-04-05T20:11:37.244Z,4.10
2023-04-05T20:14:30.644Z,3.85
2023-04-05T20:17:19.421Z,4.20
2023-04-05T20:20:09.478Z,3.90
2023-04-05T20:22:58.794Z,3.95
2023-04-05T20:25:47.549Z,4.38
2023-04-05T20:28:38.840Z,4.55
2023-04-05T20:31:30.895Z,3.95
2023-04-05T20:34:27.803Z,4.50
2023-04-05T20:37:16.517Z,4.03
2023-04-05T20:40:05.392Z,4.18
2023-04-05T20:42:53.898Z,4.50
2023-04-05T20:45:43.082Z,4.80
2023-04-05T20:48:34.057Z,4.53
2023-04-05T20:51:22.595Z,4.30
2023-04-05T20:54:11.498Z,4.82
2023-04-05T20:57:00.053Z,4.80
2023-04-05T20:59:48.602Z,5.55
2023-04-05T21:02:37.250Z,5.10
2023-04-05T21:05:27.289Z,4.68
2023-04-05T21:08:16.232Z,5.10
2023-04-05T21:11:05.504Z,4.30
2023-04-05T21:13:54.060Z,4.68
2023-04-05T21:16:42.535Z,4.75
2023-04-05T21:19:31.019Z,4.35
2023-04-05T21:22:21.305Z,4.00
2023-04-05T21:25:10.666Z,4.83
2023-04-05T21:27:59.549Z,5.32
2023-04-05T21:30:48.076Z,5.00
2023-04-05T21:33:36.564Z,5.10
2023-04-05T21:36:25.037Z,4.88
2023-04-05T21:39:15.033Z,4.43
2023-04-05T21:42:03.704Z,4.00
2023-04-05T21:44:52.195Z,5.90
2023-04-05T21:47:41.163Z,5.17
2023-04-05T21:50:29.676Z,4.50
2023-04-05T21:53:18.235Z,4.63
2023-04-05T21:56:08.271Z,4.95
2023-04-05T21:58:56.815Z,4.20
2023-04-05T22:01:45.431Z,5.50
2023-04-05T22:04:33.976Z,4.50
2023-04-05T22:07:22.453Z,4.20
2023-04-05T22:10:11.441Z,4.43
2023-04-05T22:13:01.425Z,4.03
2023-04-05T22:15:49.983Z,4.10
2023-04-05T22:18:38.471Z,4.68
2023-04-05T22:21:26.993Z,3.60
2023-04-05T22:24:15.859Z,4.00
2023-04-05T22:27:04.385Z,4.68
2023-04-05T22:29:54.754Z,3.28
2023-04-05T22:32:43.353Z,3.53
2023-04-05T22:35:31.972Z,3.78
2023-04-05T22:38:20.461Z,3.85
2023-04-05T22:41:08.975Z,3.47
2023-04-05T22:43:57.504Z,3.88
2023-04-05T22:46:47.422Z,3.03
2023-04-05T22:49:36.374Z,3.33
2023-04-05T22:52:24.903Z,3.87
2023-04-05T22:55:13.809Z,2.85
2023-04-05T22:58:02.334Z,3.15
2023-04-05T23:00:51.553Z,2.97
2023-04-05T23:03:41.565Z,3.57
2023-04-05T23:06:30.239Z,3.70
2023-04-05T23:09:18.700Z,3.25
2023-04-05T23:12:08.035Z,3.10
2023-04-05T23:14:58.239Z,2.70
2023-04-05T23:17:46.821Z,2.78
2023-04-05T23:20:36.828Z,2.77
2023-04-05T23:23:25.819Z,2.58
2023-04-05T23:26:14.324Z,2.92
2023-04-05T23:29:02.933Z,2.45
2023-04-05T23:31:53.154Z,2.70
2023-04-05T23:34:41.726Z,2.65
2023-04-05T23:37:31.844Z,3.22
2023-04-05T23:40:20.468Z,3.00
2023-04-05T23:43:08.978Z,2.50
2023-04-05T23:45:57.602Z,3.00
2023-04-05T23:48:46.101Z,3.63
2023-04-05T23:51:34.610Z,3.00
2023-04-05T23:54:24.656Z,3.28
2023-04-05T23:57:13.107Z,3.80
